Papineauville, Canada
Current Conditions -  °F | °C
As of 12:00 AM on Saturday 01 Nov 2014 (Local Time) from CYOW Reporting Station
Overcast Overcast  
Wind Chill: 30°   Ceiling: 11000
Heat Index: 37°   Visibility: 15mi
Dew Point: 27°   Wind: 10mph
Humidity: 65%   Direction: 30°NNE
Pressure: 30.11"   Gusts: NA
Location:  45.62°N, 75.02°W
Report Text: CYOW 010400Z 03009KT 15SM SCT075 OVC110 03/M03 A3011 RMK AS4AC4 SLP201
Loading
Personal Weather Stations






























Interactive Weather Map
Tropical Storm Tracking
New forecast layout! Learn more

10-Day Weather Forecast

Advertisements
Track Severe Weather on mobile